createdAt,value
2022-11-29T00:01:32.514Z,91492.56
2022-11-29T00:03:59.206Z,91492.47
2022-11-29T00:06:27.913Z,91491.72
2022-11-29T00:08:55.811Z,91496.59
2022-11-29T00:11:43.203Z,91493.69
2022-11-29T00:14:12.799Z,91493.69
2022-11-29T00:16:42.123Z,91487.38
2022-11-29T00:19:13.194Z,91492.25
2022-11-29T00:21:39.752Z,91486.66
2022-11-29T00:24:06.795Z,91474.06
2022-11-29T00:26:33.448Z,91477.56
2022-11-29T00:28:59.965Z,91479.53
2022-11-29T00:31:32.077Z,91475.28
2022-11-29T00:34:00.372Z,91476.63
2022-11-29T00:36:28.027Z,91477.97
2022-11-29T00:38:54.480Z,91472.38
2022-11-29T00:41:21.140Z,91475.06
2022-11-29T00:43:47.703Z,91468.75
2022-11-29T00:46:14.213Z,91472.16
2022-11-29T00:48:40.710Z,91471.53
2022-11-29T00:51:07.979Z,91468.00
2022-11-29T00:53:35.667Z,91470.09
2022-11-29T00:56:02.594Z,91470.69
2022-11-29T00:58:29.659Z,91470.69
2022-11-29T01:00:56.708Z,91467.81
2022-11-29T01:03:24.145Z,91471.19
2022-11-29T01:05:50.523Z,91472.66
2022-11-29T01:08:17.579Z,91466.34
2022-11-29T01:10:44.015Z,91470.50
2022-11-29T01:13:11.295Z,91471.81
2022-11-29T01:15:38.548Z,91470.38
2022-11-29T01:18:05.327Z,91467.59
2022-11-29T01:20:31.783Z,91466.13
2022-11-29T01:22:58.450Z,91459.09
2022-11-29T01:25:25.106Z,91464.69
2022-11-29T01:27:51.556Z,91461.78
2022-11-29T01:30:18.090Z,91460.34
2022-11-29T01:32:44.572Z,91463.25
2022-11-29T01:35:11.103Z,91467.38
2022-11-29T01:37:37.549Z,91466.63
2022-11-29T01:40:04.438Z,91466.63
2022-11-29T01:42:30.896Z,91457.44
2022-11-29T01:45:20.287Z,91457.44
2022-11-29T01:47:48.745Z,91457.44
2022-11-29T01:50:15.280Z,91457.31
2022-11-29T01:52:42.121Z,91457.22
2022-11-29T01:55:10.007Z,91455.88
2022-11-29T01:57:39.858Z,91447.53
2022-11-29T02:00:17.987Z,91458.69
2022-11-29T02:02:49.510Z,91451.63
2022-11-29T02:05:18.677Z,91455.03
2022-11-29T02:07:48.416Z,91451.53
2022-11-29T02:10:16.443Z,91457.00
2022-11-29T02:12:54.745Z,91457.00
2022-11-29T02:15:32.206Z,91451.41
2022-11-29T02:18:12.569Z,91450.69
2022-11-29T02:21:16.304Z,91445.72
2022-11-29T02:24:33.584Z,91447.19
2022-11-29T02:27:20.703Z,91446.44
2022-11-29T02:30:14.893Z,91448.50
2022-11-29T02:32:54.289Z,91452.66
2022-11-29T02:35:42.066Z,91446.34
2022-11-29T02:38:56.114Z,91442.72
2022-11-29T02:41:44.100Z,91442.72
2022-11-29T02:44:35.404Z,91441.25
2022-11-29T02:47:24.799Z,91443.94
2022-11-29T02:50:12.582Z,91448.06
2022-11-29T02:52:45.106Z,91449.50
2022-11-29T02:55:29.729Z,91442.50
2022-11-29T02:58:14.074Z,91446.63
2022-11-29T03:00:50.320Z,91448.06
2022-11-29T03:03:59.608Z,91442.50
2022-11-29T03:06:32.163Z,91445.16
2022-11-29T03:09:36.563Z,91443.72
2022-11-29T03:12:07.472Z,91442.25
2022-11-29T03:15:04.410Z,91447.13
2022-11-29T03:18:09.726Z,91443.00
2022-11-29T03:20:51.707Z,91447.84
2022-11-29T03:23:24.339Z,91443.72
2022-11-29T03:26:10.340Z,91446.41
2022-11-29T03:28:46.303Z,91447.84
2022-11-29T03:31:15.700Z,91448.56
2022-11-29T03:33:48.802Z,91452.00
2022-11-29T03:36:45.502Z,91454.03
2022-11-29T03:39:18.850Z,91457.56
2022-11-29T03:41:55.411Z,91450.53
2022-11-29T03:44:35.556Z,91460.22
2022-11-29T03:47:04.793Z,91455.38
2022-11-29T03:49:49.612Z,91457.56
2022-11-29T03:52:26.645Z,91457.44
2022-11-29T03:55:46.324Z,91453.91
2022-11-29T03:58:31.535Z,91460.22
2022-11-29T04:01:35.029Z,91459.47
2022-11-29T04:04:31.978Z,91455.97
2022-11-29T04:07:01.215Z,91457.31
2022-11-29T04:09:56.460Z,91451.72
2022-11-29T04:12:38.139Z,91451.72
2022-11-29T04:15:40.688Z,91454.41
2022-11-29T04:18:49.042Z,91453.66
2022-11-29T04:21:31.444Z,91452.34
2022-11-29T04:24:15.995Z,91443.25
2022-11-29T04:27:06.984Z,91448.81
2022-11-29T04:29:44.187Z,91444.59
2022-11-29T04:32:35.381Z,91448.09
2022-11-29T04:35:07.804Z,91445.31
2022-11-29T04:38:25.443Z,91440.34
2022-11-29T04:41:14.558Z,91455.63
2022-11-29T04:44:00.959Z,91452.97
2022-11-29T04:46:54.968Z,91447.38
2022-11-29T04:49:51.264Z,91454.41
2022-11-29T04:52:42.270Z,91451.63
2022-11-29T04:55:31.265Z,91454.41
2022-11-29T04:58:13.175Z,91460.72
2022-11-29T05:00:50.198Z,91459.97
2022-11-29T05:03:31.251Z,91462.88
2022-11-29T05:06:08.623Z,91461.44
2022-11-29T05:09:16.488Z,91462.16
2022-11-29T05:12:16.980Z,91471.25
2022-11-29T05:14:59.072Z,91474.03
2022-11-29T05:17:26.559Z,91469.91
2022-11-29T05:20:24.231Z,91460.84
2022-11-29T05:23:12.111Z,91469.19
2022-11-29T05:26:00.337Z,91469.91
2022-11-29T05:28:32.700Z,91469.91
2022-11-29T05:31:19.715Z,91471.38
2022-11-29T05:34:11.043Z,91474.03
2022-11-29T05:36:52.730Z,91471.25
2022-11-29T05:39:22.111Z,91476.94
2022-11-29T05:42:17.750Z,91486.66
2022-11-29T05:45:03.745Z,91479.63
2022-11-29T05:47:43.859Z,91481.06
2022-11-29T05:50:20.286Z,91484.47
2022-11-29T05:53:24.888Z,91481.06
2022-11-29T05:56:27.817Z,91484.47
2022-11-29T05:58:58.309Z,91491.53
2022-11-29T06:01:29.946Z,91483.16
2022-11-29T06:04:14.744Z,91482.28
2022-11-29T06:07:03.615Z,91476.72
2022-11-29T06:09:48.041Z,91478.19
2022-11-29T06:12:21.650Z,91476.72
2022-11-29T06:15:19.200Z,91476.00
2022-11-29T06:17:48.867Z,91476.72
2022-11-29T06:20:19.177Z,91473.94
2022-11-29T06:23:06.776Z,91475.28
2022-11-29T06:26:04.516Z,91478.19
2022-11-29T06:28:54.282Z,91478.88
2022-11-29T06:31:22.233Z,91485.19
2022-11-29T06:34:11.057Z,91489.34
2022-11-29T06:36:50.707Z,91493.47
2022-11-29T06:39:17.567Z,91489.34
2022-11-29T06:41:44.123Z,91494.94
2022-11-29T06:44:11.332Z,91494.19
2022-11-29T06:47:09.848Z,91488.63
2022-11-29T06:50:06.594Z,91494.94
2022-11-29T06:52:44.878Z,91487.88
2022-11-29T06:55:37.439Z,91489.34
2022-11-29T06:58:22.626Z,91490.78
2022-11-29T07:01:00.625Z,91487.25
2022-11-29T07:03:29.915Z,91496.38
2022-11-29T07:05:57.391Z,91507.53
2022-11-29T07:08:24.710Z,91502.69
2022-11-29T07:10:54.106Z,91502.69
2022-11-29T07:13:21.437Z,91502.69
2022-11-29T07:16:25.722Z,91506.09
2022-11-29T07:19:12.560Z,91511.66
2022-11-29T07:21:58.956Z,91508.97
2022-11-29T07:24:53.003Z,91516.00
2022-11-29T07:27:47.106Z,91508.97
2022-11-29T07:30:19.690Z,91511.75
2022-11-29T07:32:52.005Z,91516.63
2022-11-29T07:35:45.167Z,91514.53
2022-11-29T07:38:54.946Z,91508.97
2022-11-29T07:41:27.225Z,91518.78
2022-11-29T07:44:05.219Z,91516.00
2022-11-29T07:46:31.752Z,91516.00
2022-11-29T07:48:58.216Z,91511.75
2022-11-29T07:51:25.501Z,91510.44
2022-11-29T07:53:52.035Z,91508.97
2022-11-29T07:56:18.614Z,91516.00
2022-11-29T07:58:45.182Z,91513.22
2022-11-29T08:01:11.801Z,91516.00
2022-11-29T08:03:38.308Z,91513.94
2022-11-29T08:06:04.831Z,91516.00
2022-11-29T08:08:31.351Z,91510.44
2022-11-29T08:10:57.844Z,91520.13
2022-11-29T08:13:24.439Z,91513.94
2022-11-29T08:15:51.052Z,91525.84
2022-11-29T08:18:17.756Z,91521.72
2022-11-29T08:20:46.214Z,91520.38
2022-11-29T08:23:13.688Z,91523.16
2022-11-29T08:25:40.390Z,91525.97
2022-11-29T08:28:06.904Z,91521.72
2022-11-29T08:30:33.488Z,91520.38
2022-11-29T08:33:00.069Z,91518.94
2022-11-29T08:35:26.559Z,91520.38
2022-11-29T08:37:54.556Z,91526.44
2022-11-29T08:40:21.118Z,91524.53
2022-11-29T08:42:47.588Z,91532.88
2022-11-29T08:45:14.063Z,91520.38
2022-11-29T08:47:42.260Z,91532.88
2022-11-29T08:50:16.961Z,91526.69
2022-11-29T08:53:07.090Z,91531.53
2022-11-29T08:55:36.768Z,91533.72
2022-11-29T08:58:06.905Z,91537.84
2022-11-29T09:00:34.175Z,91541.25
2022-11-29T09:03:21.268Z,91537.13
2022-11-29T09:05:47.763Z,91537.13
2022-11-29T09:08:14.522Z,91537.13
2022-11-29T09:10:42.268Z,91539.78
2022-11-29T09:13:09.865Z,91539.19
2022-11-29T09:15:41.863Z,91542.69
2022-11-29T09:18:08.383Z,91537.13
2022-11-29T09:20:35.127Z,91542.69
2022-11-29T09:23:02.004Z,91542.59
2022-11-29T09:25:28.744Z,91552.41
2022-11-29T09:27:57.907Z,91552.41
2022-11-29T09:30:24.375Z,91553.84
2022-11-29T09:32:50.913Z,91555.31
2022-11-29T09:35:17.496Z,91551.06
2022-11-29T09:37:44.266Z,91543.44
2022-11-29T09:40:25.487Z,91549.75
2022-11-29T09:43:14.060Z,91549.63
2022-11-29T09:45:43.141Z,91553.84
2022-11-29T09:48:18.671Z,91546.84
2022-11-29T09:50:53.235Z,91548.28
2022-11-29T09:53:35.933Z,91549.00
2022-11-29T09:56:02.323Z,91548.28
2022-11-29T09:58:34.981Z,91551.06
2022-11-29T10:01:08.044Z,91546.22
2022-11-29T10:03:58.513Z,91544.16
2022-11-29T10:06:36.615Z,91544.16
2022-11-29T10:09:30.871Z,91543.44
2022-11-29T10:12:11.851Z,91538.59
2022-11-29T10:15:00.371Z,91538.59
2022-11-29T10:17:37.001Z,91541.50
2022-11-29T10:20:10.798Z,91540.03
2022-11-29T10:22:53.365Z,91536.63
2022-11-29T10:25:37.871Z,91531.66
2022-11-29T10:28:06.695Z,91533.00
2022-11-29T10:30:36.012Z,91530.34
2022-11-29T10:33:02.841Z,91526.19
2022-11-29T10:35:29.547Z,91524.75
2022-11-29T10:38:29.771Z,91519.19
2022-11-29T10:40:51.008Z,91517.81
2022-11-29T10:43:17.495Z,91519.75
2022-11-29T10:45:50.521Z,91527.63
2022-11-29T10:48:19.944Z,91520.63
2022-11-29T10:50:49.280Z,91519.06
2022-11-29T10:53:38.565Z,91518.44
2022-11-29T10:56:08.327Z,91517.81
2022-11-29T10:58:36.185Z,91516.97
2022-11-29T11:01:06.895Z,91526.19
2022-11-29T11:04:05.112Z,91526.81
2022-11-29T11:06:51.525Z,91520.63
2022-11-29T11:09:48.524Z,91522.66
2022-11-29T11:12:14.911Z,91516.47
2022-11-29T11:14:42.529Z,91522.06
2022-11-29T11:17:23.044Z,91516.47
2022-11-29T11:20:00.819Z,91515.78
2022-11-29T11:22:28.750Z,91516.47
2022-11-29T11:24:59.216Z,91517.81
2022-11-29T11:27:34.737Z,91522.78
2022-11-29T11:30:02.338Z,91517.22
2022-11-29T11:32:29.213Z,91510.91
2022-11-29T11:34:57.963Z,91510.91
2022-11-29T11:37:32.811Z,91518.69
2022-11-29T11:40:17.874Z,91515.03
2022-11-29T11:42:45.036Z,91512.34
2022-11-29T11:45:11.622Z,91510.19
2022-11-29T11:47:51.179Z,91504.59
2022-11-29T11:50:24.866Z,91505.44
2022-11-29T11:53:02.117Z,91506.78
2022-11-29T11:55:40.709Z,91512.34
2022-11-29T11:58:13.132Z,91509.69
2022-11-29T12:01:03.877Z,91503.16
2022-11-29T12:04:01.597Z,91512.34
2022-11-29T12:06:56.079Z,91499.72
2022-11-29T12:09:42.154Z,91518.06
2022-11-29T12:12:31.156Z,91511.13
2022-11-29T12:15:03.804Z,91516.09
2022-11-29T12:17:36.561Z,91518.16
2022-11-29T12:20:36.753Z,91524.47
2022-11-29T12:23:09.433Z,91508.44
2022-11-29T12:25:45.713Z,91518.16
2022-11-29T12:28:18.706Z,91511.13
2022-11-29T12:30:56.980Z,91519.50
2022-11-29T12:33:32.086Z,91520.97
2022-11-29T12:36:08.079Z,91518.88
2022-11-29T12:38:41.608Z,91521.06
2022-11-29T12:41:14.093Z,91517.66
2022-11-29T12:44:09.763Z,91518.38
2022-11-29T12:46:38.170Z,91519.84
2022-11-29T12:49:10.544Z,91518.88
2022-11-29T12:51:43.067Z,91519.00
2022-11-29T12:54:42.536Z,91518.88
2022-11-29T12:57:33.667Z,91525.19
2022-11-29T13:00:12.660Z,91523.75
2022-11-29T13:02:53.053Z,91519.63
2022-11-29T13:05:33.857Z,91529.34
2022-11-29T13:08:41.528Z,91525.19
2022-11-29T13:11:32.146Z,91526.63
2022-11-29T13:14:42.301Z,91529.41
2022-11-29T13:17:12.628Z,91527.38
2022-11-29T13:19:46.437Z,91525.19
2022-11-29T13:22:31.224Z,91524.47
2022-11-29T13:25:01.455Z,91526.63
2022-11-29T13:27:36.505Z,91523.75
2022-11-29T13:30:04.406Z,91525.19
2022-11-29T13:32:39.919Z,91529.34
2022-11-29T13:35:18.356Z,91523.75
2022-11-29T13:38:07.908Z,91528.72
2022-11-29T13:40:51.531Z,91528.09
2022-11-29T13:43:30.501Z,91533.69
2022-11-29T13:46:13.584Z,91522.53
2022-11-29T13:48:50.310Z,91525.31
2022-11-29T13:51:25.318Z,91528.09
2022-11-29T13:53:52.942Z,91528.09
2022-11-29T13:56:27.036Z,91525.31
2022-11-29T13:58:54.619Z,91528.09
2022-11-29T14:01:22.480Z,91521.06
2022-11-29T14:04:03.544Z,91523.97
2022-11-29T14:06:36.093Z,91527.38
2022-11-29T14:09:26.137Z,91532.22
2022-11-29T14:12:17.962Z,91536.47
2022-11-29T14:14:54.166Z,91530.88
2022-11-29T14:17:47.424Z,91529.53
2022-11-29T14:20:22.982Z,91528.09
2022-11-29T14:23:04.895Z,91533.69
2022-11-29T14:25:51.173Z,91532.44
2022-11-29T14:28:18.558Z,91531.00
2022-11-29T14:30:44.977Z,91536.59
2022-11-29T14:33:43.685Z,91536.59
2022-11-29T14:36:18.798Z,91532.22
2022-11-29T14:38:59.304Z,91532.22
2022-11-29T14:41:50.582Z,91536.59
2022-11-29T14:44:28.172Z,91527.59
2022-11-29T14:47:26.989Z,91539.50
2022-11-29T14:49:55.577Z,91537.28
2022-11-29T14:52:49.452Z,91543.59
2022-11-29T14:55:31.762Z,91545.06
2022-11-29T14:58:01.249Z,91544.34
2022-11-29T15:00:38.326Z,91546.50
2022-11-29T15:03:06.311Z,91544.47
2022-11-29T15:05:35.937Z,91542.41
2022-11-29T15:08:25.132Z,91547.88
2022-11-29T15:10:59.275Z,91550.66
2022-11-29T15:13:31.947Z,91551.38
2022-11-29T15:16:19.899Z,91550.66
2022-11-29T15:19:13.987Z,91549.19
2022-11-29T15:22:08.210Z,91557.69
2022-11-29T15:24:53.964Z,91557.69
2022-11-29T15:27:21.348Z,91556.25
2022-11-29T15:29:48.457Z,91557.69
2022-11-29T15:32:43.244Z,91561.81
2022-11-29T15:35:18.264Z,91566.06
2022-11-29T15:37:46.239Z,91557.69
2022-11-29T15:40:14.294Z,91574.41
2022-11-29T15:42:49.926Z,91580.00
2022-11-29T15:45:32.694Z,91580.00
2022-11-29T15:48:11.688Z,91581.47
2022-11-29T15:50:42.851Z,91584.16
2022-11-29T15:53:16.762Z,91580.00
2022-11-29T15:55:44.812Z,91585.59
2022-11-29T15:58:14.357Z,91589.00
2022-11-29T16:00:43.501Z,91584.16
2022-11-29T16:03:20.493Z,91582.69
2022-11-29T16:05:51.704Z,91582.69
2022-11-29T16:08:20.835Z,91585.59
2022-11-29T16:10:52.912Z,91584.84
2022-11-29T16:13:25.346Z,91581.47
2022-11-29T16:16:16.105Z,91588.50
2022-11-29T16:18:45.227Z,91596.88
2022-11-29T16:21:29.102Z,91595.50
2022-11-29T16:23:56.935Z,91596.88
2022-11-29T16:26:23.751Z,91606.69
2022-11-29T16:28:52.805Z,91603.88
2022-11-29T16:31:21.668Z,91604.75
2022-11-29T16:33:51.302Z,91602.56
2022-11-29T16:36:22.209Z,91609.59
2022-11-29T16:38:54.232Z,91607.66
2022-11-29T16:41:35.337Z,91613.97
2022-11-29T16:44:03.873Z,91613.97
2022-11-29T16:46:38.095Z,91609.81
2022-11-29T16:49:33.403Z,91604.13
2022-11-29T16:52:00.526Z,91608.47
2022-11-29T16:54:34.040Z,91615.41
2022-11-29T16:57:03.611Z,91609.94
2022-11-29T16:59:30.286Z,91621.84
2022-11-29T17:01:56.977Z,91618.31
2022-11-29T17:04:24.995Z,91621.00
2022-11-29T17:06:56.187Z,91615.41
2022-11-29T17:09:31.511Z,91619.63
2022-11-29T17:12:01.575Z,91625.13
2022-11-29T17:14:31.720Z,91618.19
2022-11-29T17:17:01.247Z,91626.56
2022-11-29T17:19:29.089Z,91619.53
2022-11-29T17:21:55.557Z,91629.25
2022-11-29T17:24:23.914Z,91629.25
2022-11-29T17:26:50.827Z,91634.94
2022-11-29T17:29:18.030Z,91629.34
2022-11-29T17:31:45.551Z,91629.47
2022-11-29T17:34:12.302Z,91628.13
2022-11-29T17:36:39.041Z,91632.88
2022-11-29T17:39:05.687Z,91640.66
2022-11-29T17:41:32.969Z,91637.13
2022-11-29T17:43:59.878Z,91642.81
2022-11-29T17:46:35.181Z,91646.47
2022-11-29T17:49:07.577Z,91646.47
2022-11-29T17:51:52.830Z,91643.66
2022-11-29T17:54:20.939Z,91642.31
2022-11-29T17:56:47.427Z,91647.91
2022-11-29T17:59:13.892Z,91648.63
2022-11-29T18:01:40.621Z,91644.50
2022-11-29T18:04:08.301Z,91645.22
2022-11-29T18:06:37.631Z,91645.97
2022-11-29T18:09:05.969Z,91643.75
2022-11-29T18:11:43.302Z,91647.41
2022-11-29T18:14:15.297Z,91649.47
2022-11-29T18:16:42.532Z,91656.41
2022-11-29T18:19:12.195Z,91650.81
2022-11-29T18:21:39.199Z,91650.81
2022-11-29T18:24:07.249Z,91655.66
2022-11-29T18:26:35.302Z,91654.94
2022-11-29T18:29:02.708Z,91660.75
2022-11-29T18:31:30.547Z,91655.91
2022-11-29T18:33:59.516Z,91667.06
2022-11-29T18:36:32.592Z,91660.75
2022-11-29T18:39:10.882Z,91661.47
2022-11-29T18:41:38.014Z,91660.00
2022-11-29T18:44:10.600Z,91663.41
2022-11-29T18:46:39.437Z,91663.66
2022-11-29T18:49:08.544Z,91658.81
2022-11-29T18:51:36.787Z,91662.34
2022-11-29T18:54:04.134Z,91662.22
2022-11-29T18:56:31.241Z,91661.72
2022-11-29T18:59:04.711Z,91669.38
2022-11-29T19:01:32.681Z,91669.47
2022-11-29T19:04:01.099Z,91671.53
2022-11-29T19:06:39.299Z,91678.47
2022-11-29T19:09:09.588Z,91677.75
2022-11-29T19:11:36.035Z,91674.31
2022-11-29T19:14:11.332Z,91680.66
2022-11-29T19:16:40.148Z,91677.84
2022-11-29T19:19:06.687Z,91684.75
2022-11-29T19:21:34.416Z,91687.66
2022-11-29T19:24:03.457Z,91687.66
2022-11-29T19:26:32.054Z,91690.47
2022-11-29T19:29:00.666Z,91692.06
2022-11-29T19:31:27.689Z,91683.56
2022-11-29T19:33:55.826Z,91689.84
2022-11-29T19:36:24.843Z,91684.88
2022-11-29T19:38:54.164Z,91686.47
2022-11-29T19:41:22.695Z,91683.69
2022-11-29T19:43:50.446Z,91686.47
2022-11-29T19:46:40.004Z,91689.25
2022-11-29T19:49:08.118Z,91693.50
2022-11-29T19:51:35.348Z,91695.56
2022-11-29T19:54:04.543Z,91694.72
2022-11-29T19:56:32.140Z,91697.53
2022-11-29T19:58:59.944Z,91696.06
2022-11-29T20:01:36.038Z,91702.97
2022-11-29T20:04:04.563Z,91698.84
2022-11-29T20:06:31.099Z,91698.84
2022-11-29T20:08:58.156Z,91704.44
2022-11-29T20:11:26.136Z,91697.53
2022-11-29T20:13:59.299Z,91701.63
2022-11-29T20:16:27.348Z,91700.19
2022-11-29T20:18:54.458Z,91702.97
2022-11-29T20:21:25.134Z,91703.72
2022-11-29T20:23:57.218Z,91712.09
2022-11-29T20:26:24.423Z,91705.78
2022-11-29T20:28:51.227Z,91705.91
2022-11-29T20:31:21.461Z,91711.47
2022-11-29T20:33:49.411Z,91712.91
2022-11-29T20:36:33.638Z,91710.00
2022-11-29T20:39:18.142Z,91715.59
2022-11-29T20:41:53.352Z,91713.41
2022-11-29T20:44:36.212Z,91712.91
2022-11-29T20:47:12.415Z,91712.81
2022-11-29T20:49:39.055Z,91714.75
2022-11-29T20:52:09.551Z,91722.53
2022-11-29T20:54:36.058Z,91714.16
2022-11-29T20:57:02.549Z,91714.88
2022-11-29T20:59:29.000Z,91714.16
2022-11-29T21:01:57.540Z,91717.78
2022-11-29T21:04:24.056Z,91718.38
2022-11-29T21:06:50.522Z,91726.75
2022-11-29T21:09:17.059Z,91719.13
2022-11-29T21:11:43.674Z,91726.75
2022-11-29T21:14:10.376Z,91718.16
2022-11-29T21:16:37.047Z,91716.81
2022-11-29T21:19:03.912Z,91716.94
2022-11-29T21:21:39.887Z,91715.84
2022-11-29T21:24:24.494Z,91720.19
2022-11-29T21:26:51.646Z,91716.06
2022-11-29T21:29:20.263Z,91716.78
2022-11-29T21:31:49.080Z,91719.69
2022-11-29T21:34:15.561Z,91721.88
2022-11-29T21:36:43.644Z,91719.19
2022-11-29T21:39:16.145Z,91714.09
2022-11-29T21:41:42.922Z,91721.28
2022-11-29T21:44:09.381Z,91718.00
2022-11-29T21:46:36.196Z,91712.03
2022-11-29T21:49:02.716Z,91710.16
2022-11-29T21:51:29.191Z,91702.16
2022-11-29T21:53:55.676Z,91705.28
2022-11-29T21:56:22.110Z,91705.63
2022-11-29T21:58:48.550Z,91710.09
2022-11-29T22:01:18.235Z,91706.19
2022-11-29T22:03:45.335Z,91706.41
2022-11-29T22:06:14.855Z,91710.78
2022-11-29T22:08:42.373Z,91709.66
2022-11-29T22:11:11.629Z,91711.22
2022-11-29T22:14:00.017Z,91711.44
2022-11-29T22:16:26.604Z,91707.53
2022-11-29T22:18:53.347Z,91711.16
2022-11-29T22:21:20.120Z,91712.00
2022-11-29T22:23:46.571Z,91710.66
2022-11-29T22:26:13.326Z,91714.91
2022-11-29T22:28:39.756Z,91716.47
2022-11-29T22:31:10.065Z,91710.88
2022-11-29T22:33:36.856Z,91713.78
2022-11-29T22:36:11.570Z,91718.88
2022-11-29T22:38:38.970Z,91718.25
2022-11-29T22:41:08.347Z,91716.91
2022-11-29T22:43:35.887Z,91705.81
2022-11-29T22:46:05.451Z,91710.81
2022-11-29T22:48:38.172Z,91708.84
2022-11-29T22:51:06.836Z,91717.34
2022-11-29T22:53:34.041Z,91711.88
2022-11-29T22:56:01.661Z,91714.91
2022-11-29T22:58:28.668Z,91715.41
2022-11-29T23:01:26.019Z,91710.31
2022-11-29T23:03:55.367Z,91706.03
2022-11-29T23:06:24.911Z,91701.81
2022-11-29T23:08:53.708Z,91708.72
2022-11-29T23:11:24.520Z,91708.59
2022-11-29T23:13:51.389Z,91703.75
2022-11-29T23:16:20.761Z,91707.16
2022-11-29T23:18:47.663Z,91701.56
2022-11-29T23:21:17.743Z,91699.41
2022-11-29T23:23:44.619Z,91709.84
2022-11-29T23:26:21.411Z,91708.41
2022-11-29T23:28:48.804Z,91697.22
2022-11-29T23:31:15.405Z,91697.22
2022-11-29T23:33:41.895Z,91703.41
2022-11-29T23:36:09.779Z,91706.94
2022-11-29T23:38:36.776Z,91704.25
2022-11-29T23:41:04.369Z,91707.06
2022-11-29T23:43:32.542Z,91700.13
2022-11-29T23:45:59.268Z,91700.84
2022-11-29T23:48:26.069Z,91700.13
2022-11-29T23:50:52.544Z,91698.66
2022-11-29T23:53:19.364Z,91701.47
2022-11-29T23:55:47.884Z,91702.09
2022-11-29T23:58:14.320Z,91698.56
